createdAt,value
2022-12-13T00:00:08.469Z,14.57
2022-12-13T00:03:14.145Z,13.97
2022-12-13T00:06:15.737Z,15.90
2022-12-13T00:09:18.449Z,14.60
2022-12-13T00:12:19.858Z,14.50
2022-12-13T00:15:21.250Z,15.00
2022-12-13T00:18:22.672Z,15.10
2022-12-13T00:21:27.718Z,15.40
2022-12-13T00:24:29.105Z,13.83
2022-12-13T00:27:30.675Z,15.03
2022-12-13T00:30:32.170Z,15.40
2022-12-13T00:33:34.204Z,15.70
2022-12-13T00:36:35.595Z,15.83
2022-12-13T00:39:37.074Z,14.70
2022-12-13T00:42:38.468Z,14.77
2022-12-13T00:45:40.499Z,15.27
2022-12-13T00:48:42.888Z,15.00
2022-12-13T00:51:44.285Z,13.77
2022-12-13T00:54:45.690Z,14.60
2022-12-13T00:57:47.125Z,14.47
2022-12-13T01:00:48.547Z,14.07
2022-12-13T01:03:51.270Z,14.00
2022-12-13T01:06:53.794Z,14.37
2022-12-13T01:09:58.118Z,15.53
2022-12-13T01:12:59.875Z,15.03
2022-12-13T01:16:03.683Z,14.90
2022-12-13T01:19:06.170Z,16.13
2022-12-13T01:22:08.185Z,15.10
2022-12-13T01:25:10.721Z,14.87
2022-12-13T01:28:12.125Z,13.93
2022-12-13T01:31:17.607Z,14.03
2022-12-13T01:34:21.107Z,14.67
2022-12-13T01:37:28.039Z,14.93
2022-12-13T01:40:29.650Z,14.97
2022-12-13T01:43:37.336Z,14.13
2022-12-13T01:46:38.709Z,14.50
2022-12-13T01:49:40.138Z,15.33
2022-12-13T01:52:44.136Z,14.87
2022-12-13T01:55:50.312Z,14.93
2022-12-13T01:58:55.242Z,15.27
2022-12-13T02:02:01.122Z,15.63
2022-12-13T02:05:41.475Z,15.20
2022-12-13T02:08:44.740Z,14.87
2022-12-13T02:11:46.755Z,14.53
2022-12-13T02:14:48.390Z,15.10
2022-12-13T02:18:03.058Z,15.67
2022-12-13T02:21:21.220Z,15.37
2022-12-13T02:24:40.249Z,15.47
2022-12-13T02:28:00.491Z,14.10
2022-12-13T02:31:08.474Z,14.47
2022-12-13T02:34:26.922Z,14.93
2022-12-13T02:37:50.700Z,14.93
2022-12-13T02:41:10.439Z,14.07
2022-12-13T02:44:22.832Z,15.13
2022-12-13T02:47:27.664Z,16.00
2022-12-13T02:50:31.728Z,15.60
2022-12-13T02:53:34.694Z,16.20
2022-12-13T02:56:36.170Z,16.23
2022-12-13T02:59:39.727Z,15.73
2022-12-13T03:02:59.624Z,16.30
2022-12-13T03:06:34.082Z,14.73
2022-12-13T03:09:48.745Z,14.87
2022-12-13T03:13:38.200Z,15.40
2022-12-13T03:16:43.664Z,14.30
2022-12-13T03:19:45.104Z,15.50
2022-12-13T03:22:46.524Z,15.60
2022-12-13T03:25:52.097Z,14.93
2022-12-13T03:28:53.719Z,16.13
2022-12-13T03:31:55.232Z,15.93
2022-12-13T03:35:00.922Z,16.17
2022-12-13T03:38:04.042Z,15.60
2022-12-13T03:41:09.790Z,15.77
2022-12-13T03:44:11.425Z,15.97
2022-12-13T03:47:12.852Z,16.20
2022-12-13T03:50:26.763Z,16.43
2022-12-13T03:53:32.703Z,15.10
2022-12-13T03:56:35.771Z,16.37
2022-12-13T03:59:38.965Z,15.47
2022-12-13T04:02:40.481Z,15.70
2022-12-13T04:05:42.561Z,15.93
2022-12-13T04:08:44.043Z,16.67
2022-12-13T04:12:04.086Z,15.87
2022-12-13T04:15:06.759Z,15.47
2022-12-13T04:18:08.180Z,15.33
2022-12-13T04:21:09.736Z,15.87
2022-12-13T04:24:11.137Z,15.80
2022-12-13T04:27:12.539Z,15.83
2022-12-13T04:30:14.028Z,14.83
2022-12-13T04:33:15.419Z,14.57
2022-12-13T04:36:31.659Z,14.60
2022-12-13T04:39:34.920Z,14.03
2022-12-13T04:42:36.424Z,14.53
2022-12-13T04:45:37.863Z,13.47
2022-12-13T04:48:39.756Z,14.27
2022-12-13T04:51:41.177Z,13.77
2022-12-13T04:54:56.128Z,13.23
2022-12-13T04:57:57.705Z,14.67
2022-12-13T05:00:59.207Z,14.30
2022-12-13T05:04:04.126Z,14.20
2022-12-13T05:07:05.685Z,13.27
2022-12-13T05:10:07.642Z,13.83
2022-12-13T05:13:09.043Z,13.50
2022-12-13T05:16:10.556Z,14.67
2022-12-13T05:19:11.994Z,13.87
2022-12-13T05:22:19.805Z,12.90
2022-12-13T05:25:22.391Z,13.17
2022-12-13T05:28:28.782Z,12.03
2022-12-13T05:31:30.597Z,12.80
2022-12-13T05:34:32.057Z,12.70
2022-12-13T05:37:34.879Z,13.63
2022-12-13T05:40:36.499Z,12.30
2022-12-13T05:43:42.702Z,12.73
2022-12-13T05:46:45.160Z,12.50
2022-12-13T05:49:46.569Z,13.73
2022-12-13T05:52:48.061Z,13.30
2022-12-13T05:55:49.707Z,12.93
2022-12-13T05:58:53.637Z,12.13
2022-12-13T06:01:56.885Z,12.80
2022-12-13T06:04:58.383Z,12.50
2022-12-13T06:08:01.335Z,12.37
2022-12-13T06:11:11.556Z,12.83
2022-12-13T06:14:21.567Z,13.53
2022-12-13T06:17:25.155Z,13.83
2022-12-13T06:20:26.800Z,13.73
2022-12-13T06:23:30.632Z,13.50
2022-12-13T06:26:32.645Z,13.70
2022-12-13T06:29:34.190Z,13.47
2022-12-13T06:32:38.930Z,13.20
2022-12-13T06:35:43.986Z,14.07
2022-12-13T06:38:45.584Z,13.63
2022-12-13T06:41:47.115Z,13.80
2022-12-13T06:44:51.676Z,22.13
2022-12-13T06:47:59.978Z,13.87
2022-12-13T06:51:03.412Z,12.80
2022-12-13T06:54:04.849Z,13.43
2022-12-13T06:57:06.249Z,15.77
2022-12-13T07:00:09.113Z,13.77
2022-12-13T07:03:12.365Z,13.13
2022-12-13T07:06:16.298Z,13.37
2022-12-13T07:09:17.788Z,13.87
2022-12-13T07:12:20.835Z,14.53
2022-12-13T07:15:22.263Z,15.07
2022-12-13T07:18:23.758Z,16.57
2022-12-13T07:21:25.364Z,14.03
2022-12-13T07:24:26.869Z,14.00
2022-12-13T07:27:28.268Z,14.03
2022-12-13T07:30:41.090Z,13.60
2022-12-13T07:33:43.186Z,13.50
2022-12-13T07:36:44.594Z,13.73
2022-12-13T07:39:46.152Z,13.37
2022-12-13T07:42:53.187Z,12.63
2022-12-13T07:45:54.985Z,12.57
2022-12-13T07:49:01.541Z,13.47
2022-12-13T07:52:03.498Z,12.83
2022-12-13T07:55:06.045Z,13.03
2022-12-13T07:58:10.437Z,13.67
2022-12-13T08:01:14.447Z,13.00
2022-12-13T08:04:15.865Z,13.60
2022-12-13T08:07:17.301Z,13.33
2022-12-13T08:10:18.796Z,13.43
2022-12-13T08:13:21.503Z,13.60
2022-12-13T08:16:27.615Z,13.17
2022-12-13T08:19:30.399Z,12.70
2022-12-13T08:22:35.731Z,13.40
2022-12-13T08:25:37.871Z,12.73
2022-12-13T08:28:39.293Z,13.23
2022-12-13T08:31:40.911Z,11.67
2022-12-13T08:34:43.178Z,11.73
2022-12-13T08:37:44.584Z,11.73
2022-12-13T08:40:45.961Z,11.30
2022-12-13T08:43:47.734Z,12.30
2022-12-13T08:46:49.272Z,12.97
2022-12-13T08:49:50.902Z,13.63
2022-12-13T08:52:52.610Z,12.90
2022-12-13T08:55:53.988Z,13.23
2022-12-13T08:58:55.363Z,13.00
2022-12-13T09:02:01.602Z,12.60
2022-12-13T09:05:08.068Z,11.83
2022-12-13T09:08:23.369Z,11.67
2022-12-13T09:11:34.636Z,11.50
2022-12-13T09:14:45.708Z,12.53
2022-12-13T09:17:52.359Z,12.60
2022-12-13T09:20:54.461Z,13.00
2022-12-13T09:24:24.724Z,12.77
2022-12-13T09:27:28.955Z,13.07
2022-12-13T09:30:31.488Z,12.10
2022-12-13T09:33:40.735Z,12.80
2022-12-13T09:36:43.242Z,11.57
2022-12-13T09:39:44.660Z,11.47
2022-12-13T09:43:04.535Z,11.83
2022-12-13T09:46:23.681Z,11.60
2022-12-13T09:49:35.068Z,11.20
2022-12-13T09:52:39.899Z,11.63
2022-12-13T09:55:52.293Z,10.97
2022-12-13T09:58:56.593Z,11.73
2022-12-13T10:02:14.337Z,11.80
2022-12-13T10:05:34.260Z,11.57
2022-12-13T10:08:46.969Z,10.50
2022-12-13T10:11:53.984Z,11.23
2022-12-13T10:14:59.939Z,10.77
2022-12-13T10:18:04.201Z,12.17
2022-12-13T10:21:14.197Z,11.57
2022-12-13T10:24:32.918Z,12.50
2022-12-13T10:27:42.365Z,11.13
2022-12-13T10:30:46.388Z,11.83
2022-12-13T10:33:54.683Z,11.67
2022-12-13T10:36:59.523Z,11.77
2022-12-13T10:40:01.508Z,11.83
2022-12-13T10:43:22.159Z,11.67
2022-12-13T10:46:25.391Z,11.60
2022-12-13T10:49:32.050Z,10.77
2022-12-13T10:52:48.026Z,12.10
2022-12-13T10:55:55.097Z,11.57
2022-12-13T10:59:22.518Z,10.73
2022-12-13T11:02:39.936Z,11.03
2022-12-13T11:05:42.029Z,11.23
2022-12-13T11:08:43.863Z,10.77
2022-12-13T11:11:45.291Z,11.00
2022-12-13T11:14:54.189Z,10.83
2022-12-13T11:18:02.985Z,11.30
2022-12-13T11:21:07.615Z,11.50
2022-12-13T11:24:23.109Z,11.30
2022-12-13T11:27:39.649Z,11.07
2022-12-13T11:30:55.019Z,10.53
2022-12-13T11:34:13.409Z,10.53
2022-12-13T11:37:20.735Z,11.13
2022-12-13T11:40:28.507Z,11.23
2022-12-13T11:43:39.535Z,10.97
2022-12-13T11:46:50.359Z,10.57
2022-12-13T11:49:52.667Z,11.77
2022-12-13T11:52:59.149Z,10.93
2022-12-13T11:56:07.283Z,11.23
2022-12-13T11:59:24.424Z,10.77
2022-12-13T12:02:36.200Z,11.03
2022-12-13T12:05:41.025Z,10.67
2022-12-13T12:08:47.413Z,11.23
2022-12-13T12:12:00.001Z,10.73
2022-12-13T12:15:30.735Z,11.17
2022-12-13T12:18:33.345Z,10.77
2022-12-13T12:22:14.175Z,10.93
2022-12-13T12:25:30.975Z,11.07
2022-12-13T12:28:55.164Z,11.33
2022-12-13T12:32:18.084Z,10.83
2022-12-13T12:35:46.053Z,11.70
2022-12-13T12:39:19.956Z,10.77
2022-12-13T12:43:14.032Z,10.53
2022-12-13T12:46:35.449Z,10.77
2022-12-13T12:49:57.490Z,10.83
2022-12-13T12:53:23.266Z,11.27
2022-12-13T12:56:47.470Z,10.53
2022-12-13T13:00:09.301Z,11.07
2022-12-13T13:03:24.106Z,10.03
2022-12-13T13:06:29.453Z,12.00
2022-12-13T13:09:31.867Z,10.77
2022-12-13T13:12:43.013Z,10.83
2022-12-13T13:15:54.379Z,10.60
2022-12-13T13:18:57.718Z,13.27
2022-12-13T13:22:01.410Z,10.57
2022-12-13T13:25:06.489Z,10.30
2022-12-13T13:28:17.093Z,9.50
2022-12-13T13:31:18.608Z,9.57
2022-12-13T13:34:25.692Z,10.13
2022-12-13T13:37:43.778Z,10.70
2022-12-13T13:40:45.327Z,9.53
2022-12-13T13:43:46.831Z,9.90
2022-12-13T13:47:12.337Z,9.87
2022-12-13T13:50:48.642Z,9.57
2022-12-13T13:54:06.566Z,9.80
2022-12-13T13:58:08.319Z,10.00
2022-12-13T14:01:31.337Z,10.10
2022-12-13T14:05:09.397Z,9.67
2022-12-13T14:08:36.003Z,10.30
2022-12-13T14:12:06.824Z,9.87
2022-12-13T14:15:23.403Z,10.07
2022-12-13T14:18:58.109Z,9.90
2022-12-13T14:21:59.523Z,10.53
2022-12-13T14:25:19.920Z,9.07
2022-12-13T14:28:51.760Z,10.13
2022-12-13T14:31:53.422Z,10.20
2022-12-13T14:35:25.297Z,9.97
2022-12-13T14:38:24.132Z,9.73
2022-12-13T14:41:25.578Z,9.77
2022-12-13T14:44:34.376Z,10.83
2022-12-13T14:47:36.353Z,11.10
2022-12-13T14:50:40.061Z,9.73
2022-12-13T14:53:41.766Z,11.33
2022-12-13T14:57:18.118Z,9.90
2022-12-13T15:00:33.639Z,10.53
2022-12-13T15:03:35.255Z,11.10
2022-12-13T15:06:36.829Z,10.03
2022-12-13T15:09:41.497Z,10.27
2022-12-13T15:12:44.563Z,10.10
2022-12-13T15:15:53.725Z,10.67
2022-12-13T15:19:31.172Z,10.93
2022-12-13T15:22:37.436Z,9.90
2022-12-13T15:26:08.731Z,10.23
2022-12-13T15:29:14.516Z,10.83
2022-12-13T15:32:19.183Z,10.47
2022-12-13T15:35:27.292Z,10.20
2022-12-13T15:38:29.502Z,10.47
2022-12-13T15:41:41.611Z,10.93
2022-12-13T15:44:53.954Z,11.60
2022-12-13T15:47:55.797Z,11.60
2022-12-13T15:51:29.823Z,11.43
2022-12-13T15:54:33.059Z,9.90
2022-12-13T15:57:48.029Z,11.20
2022-12-13T16:00:49.700Z,11.40
2022-12-13T16:03:51.277Z,11.53
2022-12-13T16:06:53.377Z,11.13
2022-12-13T16:09:56.075Z,11.57
2022-12-13T16:13:07.833Z,11.90
2022-12-13T16:16:10.026Z,11.67
2022-12-13T16:19:18.055Z,11.10
2022-12-13T16:22:21.683Z,12.50
2022-12-13T16:25:23.451Z,12.33
2022-12-13T16:28:26.303Z,11.20
2022-12-13T16:31:35.844Z,11.23
2022-12-13T16:34:38.116Z,12.23
2022-12-13T16:37:39.510Z,11.80
2022-12-13T16:40:43.997Z,12.17
2022-12-13T16:44:04.020Z,11.23
2022-12-13T16:47:21.956Z,12.17
2022-12-13T16:50:25.888Z,13.03
2022-12-13T16:53:27.768Z,12.00
2022-12-13T16:56:29.480Z,12.23
2022-12-13T16:59:30.863Z,14.87
2022-12-13T17:02:32.300Z,14.23
2022-12-13T17:05:35.149Z,14.90
2022-12-13T17:08:36.915Z,12.50
2022-12-13T17:11:38.440Z,14.73
2022-12-13T17:14:39.828Z,13.40
2022-12-13T17:17:44.661Z,13.90
2022-12-13T17:20:47.146Z,13.93
2022-12-13T17:24:01.333Z,12.67
2022-12-13T17:27:02.776Z,13.50
2022-12-13T17:30:09.300Z,12.63
2022-12-13T17:33:13.187Z,11.43
2022-12-13T17:36:15.835Z,12.00
2022-12-13T17:39:17.633Z,12.57
2022-12-13T17:42:19.050Z,11.70
2022-12-13T17:45:21.503Z,12.13
2022-12-13T17:48:23.127Z,11.17
2022-12-13T17:51:24.725Z,11.30
2022-12-13T17:54:26.352Z,12.10
2022-12-13T17:57:27.835Z,11.83
2022-12-13T18:00:29.285Z,11.40
2022-12-13T18:03:30.963Z,11.20
2022-12-13T18:06:33.753Z,11.60
2022-12-13T18:09:35.154Z,10.63
2022-12-13T18:12:36.577Z,10.70
2022-12-13T18:15:38.017Z,11.83
2022-12-13T18:18:41.593Z,13.33
2022-12-13T18:21:46.149Z,12.43
2022-12-13T18:24:47.572Z,12.50
2022-12-13T18:27:49.004Z,14.07
2022-12-13T18:30:50.454Z,12.30
2022-12-13T18:33:55.672Z,11.00
2022-12-13T18:36:57.068Z,12.27
2022-12-13T18:39:58.595Z,11.57
2022-12-13T18:43:00.032Z,11.17
2022-12-13T18:46:04.053Z,10.87
2022-12-13T18:49:06.393Z,10.67
2022-12-13T18:52:08.155Z,11.30
2022-12-13T18:55:09.821Z,11.27
2022-12-13T18:58:11.239Z,11.77
2022-12-13T19:01:13.435Z,11.70
2022-12-13T19:04:14.989Z,11.27
2022-12-13T19:07:16.963Z,10.97
2022-12-13T19:10:18.593Z,10.47
2022-12-13T19:13:20.500Z,11.40
2022-12-13T19:16:23.327Z,11.60
2022-12-13T19:19:24.771Z,10.10
2022-12-13T19:22:26.215Z,11.17
2022-12-13T19:25:27.618Z,10.73
2022-12-13T19:28:29.020Z,9.70
2022-12-13T19:31:32.468Z,10.43
2022-12-13T19:34:34.184Z,10.97
2022-12-13T19:37:38.999Z,11.50
2022-12-13T19:40:42.509Z,10.20
2022-12-13T19:43:49.125Z,11.60
2022-12-13T19:46:53.881Z,10.93
2022-12-13T19:49:55.481Z,11.23
2022-12-13T19:52:56.875Z,10.67
2022-12-13T19:55:58.745Z,9.57
2022-12-13T19:59:00.116Z,9.50
2022-12-13T20:02:01.922Z,9.43
2022-12-13T20:05:03.640Z,10.27
2022-12-13T20:08:05.686Z,9.23
2022-12-13T20:11:16.979Z,9.10
2022-12-13T20:14:18.465Z,9.23
2022-12-13T20:17:19.963Z,9.83
2022-12-13T20:20:21.506Z,9.20
2022-12-13T20:23:22.949Z,8.83
2022-12-13T20:26:27.428Z,9.03
2022-12-13T20:29:28.883Z,9.00
2022-12-13T20:32:30.578Z,9.63
2022-12-13T20:35:31.995Z,8.93
2022-12-13T20:38:34.172Z,8.50
2022-12-13T20:41:36.804Z,8.70
2022-12-13T20:44:38.200Z,8.17
2022-12-13T20:47:39.818Z,9.17
2022-12-13T20:50:41.296Z,9.27
2022-12-13T20:53:49.620Z,8.90
2022-12-13T20:56:51.127Z,8.93
2022-12-13T20:59:52.516Z,8.63
2022-12-13T21:02:53.930Z,8.23
2022-12-13T21:05:56.135Z,7.73
2022-12-13T21:09:02.978Z,8.00
2022-12-13T21:12:04.646Z,7.57
2022-12-13T21:15:07.305Z,8.13
2022-12-13T21:18:08.803Z,7.60
2022-12-13T21:21:11.252Z,7.53
2022-12-13T21:24:14.768Z,7.40
2022-12-13T21:27:16.143Z,7.60
2022-12-13T21:30:17.601Z,7.17
2022-12-13T21:33:18.997Z,7.53
2022-12-13T21:36:23.701Z,8.57
2022-12-13T21:39:29.203Z,8.10
2022-12-13T21:42:30.670Z,9.03
2022-12-13T21:45:33.055Z,8.17
2022-12-13T21:48:34.988Z,7.70
2022-12-13T21:51:36.381Z,7.53
2022-12-13T21:54:37.772Z,6.77
2022-12-13T21:57:59.841Z,7.53
2022-12-13T22:01:04.529Z,7.10
2022-12-13T22:04:07.243Z,7.00
2022-12-13T22:07:09.880Z,7.40
2022-12-13T22:10:11.288Z,6.10
2022-12-13T22:13:12.765Z,7.40
2022-12-13T22:16:14.179Z,7.30
2022-12-13T22:19:15.939Z,6.77
2022-12-13T22:22:18.593Z,7.53
2022-12-13T22:25:19.982Z,6.80
2022-12-13T22:28:21.395Z,6.93
2022-12-13T22:31:26.650Z,6.87
2022-12-13T22:34:31.509Z,7.03
2022-12-13T22:37:33.234Z,6.63
2022-12-13T22:40:37.317Z,6.97
2022-12-13T22:43:38.794Z,6.90
2022-12-13T22:46:40.880Z,6.63
2022-12-13T22:49:42.347Z,6.43
2022-12-13T22:52:43.807Z,6.17
2022-12-13T22:55:45.282Z,8.07
2022-12-13T22:58:52.103Z,7.20
2022-12-13T23:02:02.151Z,7.30
2022-12-13T23:05:04.933Z,6.37
2022-12-13T23:08:06.325Z,6.37
2022-12-13T23:11:26.877Z,6.43
2022-12-13T23:14:31.316Z,6.33
2022-12-13T23:17:33.729Z,6.50
2022-12-13T23:20:35.908Z,6.10
2022-12-13T23:23:37.397Z,6.33
2022-12-13T23:26:38.888Z,5.83
2022-12-13T23:29:40.391Z,5.73
2022-12-13T23:32:41.789Z,6.03
2022-12-13T23:35:43.313Z,5.93
2022-12-13T23:38:45.366Z,5.80
2022-12-13T23:41:46.856Z,6.10
2022-12-13T23:44:49.063Z,6.20
2022-12-13T23:47:51.056Z,5.33
2022-12-13T23:50:53.553Z,5.83
2022-12-13T23:53:55.237Z,5.87
2022-12-13T23:56:56.689Z,5.20
2022-12-13T23:59:58.096Z,5.73
